Live Oak, California
Current Conditions -  °F | °C
As of 3:53 PM on Saturday 20 Dec 2014 (Local Time) from KMYV Reporting Station
Overcast Overcast  
Wind Chill: 13°   Ceiling: 7000
Heat Index: 13°   Visibility: 10mi
Dew Point: 12°   Wind: 8mph
Humidity: 90%   Direction: 150°SSE
Pressure: 30.21"   Gusts: NA
Location:  39.28°N, 121.66°W
Report Text: KMYV 202353Z AUTO 15007KT 10SM FEW038 FEW045 OVC070 13/12 A3021 RMK AO2 RAE24 SLP232 P0000 60000 T01330117 10139 20117 53001
Loading
Personal Weather Stations






























Interactive Weather Map New forecast layout! Learn more

10-Day Weather Forecast

Advertisements
Track Severe Weather on mobile